sensor_id;sensor_type;location;lat;lon;timestamp;pressure;altitude;pressure_sealevel;temperature;humidity
67517;BME280;68821;59.134;37.894;2023-05-07T00:01:05;100923.78;;;1.51;53.61
67517;BME280;68821;59.134;37.894;2023-05-07T00:03:32;100925.44;;;1.51;53.04
67517;BME280;68821;59.134;37.894;2023-05-07T00:05:58;100933.84;;;1.50;53.33
67517;BME280;68821;59.134;37.894;2023-05-07T00:08:25;100933.53;;;1.45;53.45
67517;BME280;68821;59.134;37.894;2023-05-07T00:10:51;100932.16;;;1.37;53.56
67517;BME280;68821;59.134;37.894;2023-05-07T00:13:17;100930.44;;;1.36;54.00
67517;BME280;68821;59.134;37.894;2023-05-07T00:15:43;100937.94;;;1.34;54.06
67517;BME280;68821;59.134;37.894;2023-05-07T00:18:09;100924.72;;;1.25;53.81
67517;BME280;68821;59.134;37.894;2023-05-07T00:20:35;100936.41;;;1.23;54.26
67517;BME280;68821;59.134;37.894;2023-05-07T00:23:01;100914.38;;;1.09;54.46
67517;BME280;68821;59.134;37.894;2023-05-07T00:25:27;100946.31;;;1.20;54.44
67517;BME280;68821;59.134;37.894;2023-05-07T00:27:53;100945.16;;;1.15;54.59
67517;BME280;68821;59.134;37.894;2023-05-07T00:30:19;100946.78;;;1.14;54.85
67517;BME280;68821;59.134;37.894;2023-05-07T00:32:46;100946.72;;;1.13;54.71
67517;BME280;68821;59.134;37.894;2023-05-07T00:35:14;100948.94;;;1.08;54.91
67517;BME280;68821;59.134;37.894;2023-05-07T00:37:40;100951.47;;;1.08;54.85
67517;BME280;68821;59.134;37.894;2023-05-07T00:40:07;100953.22;;;1.09;55.26
67517;BME280;68821;59.134;37.894;2023-05-07T00:42:33;100941.25;;;1.07;55.09
67517;BME280;68821;59.134;37.894;2023-05-07T00:44:59;100954.09;;;1.10;55.36
67517;BME280;68821;59.134;37.894;2023-05-07T00:47:26;100946.50;;;1.10;55.16
67517;BME280;68821;59.134;37.894;2023-05-07T00:49:52;100953.41;;;1.12;55.47
67517;BME280;68821;59.134;37.894;2023-05-07T00:52:20;100956.44;;;1.20;55.19
67517;BME280;68821;59.134;37.894;2023-05-07T00:54:47;100947.50;;;1.25;55.38
67517;BME280;68821;59.134;37.894;2023-05-07T00:57:14;100961.13;;;1.27;55.21
67517;BME280;68821;59.134;37.894;2023-05-07T00:59:41;100959.09;;;1.22;55.73
67517;BME280;68821;59.134;37.894;2023-05-07T01:05:39;100954.78;;;1.07;55.74
67517;BME280;68821;59.134;37.894;2023-05-07T01:08:05;100955.09;;;0.98;55.69
67517;BME280;68821;59.134;37.894;2023-05-07T01:10:32;100948.94;;;0.95;55.86
67517;BME280;68821;59.134;37.894;2023-05-07T01:12:58;100950.38;;;0.91;56.03
67517;BME280;68821;59.134;37.894;2023-05-07T01:15:25;100953.59;;;0.89;56.15
67517;BME280;68821;59.134;37.894;2023-05-07T01:17:52;100951.84;;;0.88;56.37
67517;BME280;68821;59.134;37.894;2023-05-07T01:20:18;100946.59;;;0.85;56.44
67517;BME280;68821;59.134;37.894;2023-05-07T01:22:45;100956.59;;;0.83;56.78
67517;BME280;68821;59.134;37.894;2023-05-07T01:25:11;100961.66;;;0.83;56.56
67517;BME280;68821;59.134;37.894;2023-05-07T01:27:37;100960.78;;;0.83;56.75
67517;BME280;68821;59.134;37.894;2023-05-07T01:30:04;100972.47;;;0.80;56.87
67517;BME280;68821;59.134;37.894;2023-05-07T01:32:48;100963.91;;;0.78;56.98
67517;BME280;68821;59.134;37.894;2023-05-07T01:35:26;100966.53;;;0.80;57.17
67517;BME280;68821;59.134;37.894;2023-05-07T01:37:54;100955.53;;;0.79;57.33
67517;BME280;68821;59.134;37.894;2023-05-07T01:40:21;100958.94;;;0.80;57.14
67517;BME280;68821;59.134;37.894;2023-05-07T01:42:48;100954.53;;;0.77;57.74
67517;BME280;68821;59.134;37.894;2023-05-07T01:45:14;100970.22;;;0.85;57.59
67517;BME280;68821;59.134;37.894;2023-05-07T01:47:40;100953.19;;;0.83;57.68
67517;BME280;68821;59.134;37.894;2023-05-07T01:50:08;100961.59;;;0.95;57.36
67517;BME280;68821;59.134;37.894;2023-05-07T01:52:39;100969.00;;;1.05;58.02
67517;BME280;68821;59.134;37.894;2023-05-07T01:55:06;100970.66;;;1.18;57.23
67517;BME280;68821;59.134;37.894;2023-05-07T01:57:32;100970.84;;;1.34;57.58
67517;BME280;68821;59.134;37.894;2023-05-07T01:59:59;100965.28;;;1.53;57.48
67517;BME280;68821;59.134;37.894;2023-05-07T02:02:25;100965.66;;;1.73;57.22
67517;BME280;68821;59.134;37.894;2023-05-07T02:04:51;100968.94;;;1.85;57.37
67517;BME280;68821;59.134;37.894;2023-05-07T02:07:17;100978.97;;;1.97;57.27
67517;BME280;68821;59.134;37.894;2023-05-07T02:09:43;100980.38;;;2.07;57.24
67517;BME280;68821;59.134;37.894;2023-05-07T02:12:09;100980.47;;;2.08;57.60
67517;BME280;68821;59.134;37.894;2023-05-07T02:14:35;100971.16;;;2.07;58.33
67517;BME280;68821;59.134;37.894;2023-05-07T02:17:01;100967.25;;;1.99;58.98
67517;BME280;68821;59.134;37.894;2023-05-07T02:19:27;100961.06;;;1.80;59.01
67517;BME280;68821;59.134;37.894;2023-05-07T02:21:53;100964.47;;;1.68;59.34
67517;BME280;68821;59.134;37.894;2023-05-07T02:24:20;100962.84;;;1.55;59.73
67517;BME280;68821;59.134;37.894;2023-05-07T02:26:46;100955.75;;;1.49;59.94
67517;BME280;68821;59.134;37.894;2023-05-07T02:29:12;100964.63;;;1.56;60.45
67517;BME280;68821;59.134;37.894;2023-05-07T02:31:38;100959.34;;;1.66;60.53
67517;BME280;68821;59.134;37.894;2023-05-07T02:34:04;100963.88;;;1.72;60.46
67517;BME280;68821;59.134;37.894;2023-05-07T02:36:30;100955.81;;;1.77;60.23
67517;BME280;68821;59.134;37.894;2023-05-07T02:38:56;100954.34;;;1.81;59.85
67517;BME280;68821;59.134;37.894;2023-05-07T02:41:22;100950.25;;;1.83;60.22
67517;BME280;68821;59.134;37.894;2023-05-07T02:43:48;100957.53;;;1.92;59.69
67517;BME280;68821;59.134;37.894;2023-05-07T02:46:15;100958.75;;;1.98;59.94
67517;BME280;68821;59.134;37.894;2023-05-07T02:48:41;100960.78;;;2.04;59.93
67517;BME280;68821;59.134;37.894;2023-05-07T02:51:07;100956.78;;;2.08;59.35
67517;BME280;68821;59.134;37.894;2023-05-07T02:53:33;100955.81;;;2.06;59.97
67517;BME280;68821;59.134;37.894;2023-05-07T02:56:00;100954.25;;;2.08;59.98
67517;BME280;68821;59.134;37.894;2023-05-07T02:58:27;100955.03;;;2.07;59.71
67517;BME280;68821;59.134;37.894;2023-05-07T03:00:53;100960.91;;;2.06;60.22
67517;BME280;68821;59.134;37.894;2023-05-07T03:03:20;100961.66;;;2.05;60.16
67517;BME280;68821;59.134;37.894;2023-05-07T03:05:46;100949.41;;;1.97;60.36
67517;BME280;68821;59.134;37.894;2023-05-07T03:08:12;100964.91;;;2.02;60.57
67517;BME280;68821;59.134;37.894;2023-05-07T03:10:39;100964.13;;;2.03;60.97
67517;BME280;68821;59.134;37.894;2023-05-07T03:13:05;100962.56;;;2.05;61.19
67517;BME280;68821;59.134;37.894;2023-05-07T03:15:31;100953.09;;;2.03;61.02
67517;BME280;68821;59.134;37.894;2023-05-07T03:17:57;100961.00;;;2.07;60.49
67517;BME280;68821;59.134;37.894;2023-05-07T03:20:23;100961.16;;;2.10;61.24
67517;BME280;68821;59.134;37.894;2023-05-07T03:22:49;100961.25;;;2.12;60.67
67517;BME280;68821;59.134;37.894;2023-05-07T03:25:15;100957.75;;;2.10;60.24
67517;BME280;68821;59.134;37.894;2023-05-07T03:27:42;100965.63;;;2.14;60.31
67517;BME280;68821;59.134;37.894;2023-05-07T03:30:08;100961.53;;;2.16;59.83
67517;BME280;68821;59.134;37.894;2023-05-07T03:32:35;100959.97;;;2.18;59.96
67517;BME280;68821;59.134;37.894;2023-05-07T03:35:02;100955.09;;;2.21;59.89
67517;BME280;68821;59.134;37.894;2023-05-07T03:37:28;100980.81;;;2.28;60.27
67517;BME280;68821;59.134;37.894;2023-05-07T03:39:54;100960.53;;;2.28;59.96
67517;BME280;68821;59.134;37.894;2023-05-07T03:42:20;100965.59;;;2.28;59.59
67517;BME280;68821;59.134;37.894;2023-05-07T03:44:49;100972.25;;;2.26;59.65
67517;BME280;68821;59.134;37.894;2023-05-07T03:47:15;100967.78;;;2.21;59.45
67517;BME280;68821;59.134;37.894;2023-05-07T03:49:41;100968.53;;;2.20;59.41
67517;BME280;68821;59.134;37.894;2023-05-07T03:52:07;100974.69;;;2.24;59.83
67517;BME280;68821;59.134;37.894;2023-05-07T03:54:34;100974.09;;;2.28;59.96
67517;BME280;68821;59.134;37.894;2023-05-07T03:57:00;100980.41;;;2.35;59.25
67517;BME280;68821;59.134;37.894;2023-05-07T03:59:26;100973.94;;;2.40;59.55
67517;BME280;68821;59.134;37.894;2023-05-07T04:01:52;100981.03;;;2.46;58.76
67517;BME280;68821;59.134;37.894;2023-05-07T04:04:18;100976.16;;;2.49;59.24
67517;BME280;68821;59.134;37.894;2023-05-07T04:06:44;100956.34;;;2.43;59.31
67517;BME280;68821;59.134;37.894;2023-05-07T04:09:10;100977.81;;;2.63;59.07
67517;BME280;68821;59.134;37.894;2023-05-07T04:11:36;100973.00;;;2.68;59.37
67517;BME280;68821;59.134;37.894;2023-05-07T04:14:03;100971.09;;;2.78;59.01
67517;BME280;68821;59.134;37.894;2023-05-07T04:16:29;100947.72;;;2.69;59.06
67517;BME280;68821;59.134;37.894;2023-05-07T04:18:55;100974.16;;;2.88;59.18
67517;BME280;68821;59.134;37.894;2023-05-07T04:21:21;100977.22;;;2.97;58.97
67517;BME280;68821;59.134;37.894;2023-05-07T04:23:47;100978.53;;;3.05;58.49
67517;BME280;68821;59.134;37.894;2023-05-07T04:26:14;100970.22;;;3.08;58.71
67517;BME280;68821;59.134;37.894;2023-05-07T04:28:41;100978.88;;;3.11;58.33
67517;BME280;68821;59.134;37.894;2023-05-07T04:31:07;100980.91;;;3.17;58.15
67517;BME280;68821;59.134;37.894;2023-05-07T04:33:33;100980.19;;;3.19;58.42
67517;BME280;68821;59.134;37.894;2023-05-07T04:36:03;100982.03;;;3.22;58.39
67517;BME280;68821;59.134;37.894;2023-05-07T04:38:30;100977.94;;;3.24;58.18
67517;BME280;68821;59.134;37.894;2023-05-07T04:41:02;100987.63;;;3.31;58.38
67517;BME280;68821;59.134;37.894;2023-05-07T04:43:28;100984.84;;;3.27;57.99
67517;BME280;68821;59.134;37.894;2023-05-07T04:45:54;100997.34;;;3.38;57.34
67517;BME280;68821;59.134;37.894;2023-05-07T04:48:20;100984.81;;;3.41;58.00
67517;BME280;68821;59.134;37.894;2023-05-07T04:50:50;100988.50;;;3.47;57.61
67517;BME280;68821;59.134;37.894;2023-05-07T04:53:16;100988.88;;;3.54;57.39
67517;BME280;68821;59.134;37.894;2023-05-07T04:55:44;100990.91;;;3.60;57.67
67517;BME280;68821;59.134;37.894;2023-05-07T04:58:13;100996.41;;;3.68;57.34
67517;BME280;68821;59.134;37.894;2023-05-07T05:00:39;100986.16;;;3.66;57.01
67517;BME280;68821;59.134;37.894;2023-05-07T05:03:08;100991.56;;;3.72;57.01
67517;BME280;68821;59.134;37.894;2023-05-07T05:05:34;100974.31;;;3.67;56.85
67517;BME280;68821;59.134;37.894;2023-05-07T05:08:01;100995.50;;;3.82;56.54
67517;BME280;68821;59.134;37.894;2023-05-07T05:10:27;100990.75;;;3.88;56.57
67517;BME280;68821;59.134;37.894;2023-05-07T05:12:53;100992.81;;;3.95;56.57
67517;BME280;68821;59.134;37.894;2023-05-07T05:15:19;101001.66;;;4.02;56.43
67517;BME280;68821;59.134;37.894;2023-05-07T05:17:46;101003.63;;;4.08;56.42
67517;BME280;68821;59.134;37.894;2023-05-07T05:20:12;100997.22;;;4.14;56.27
67517;BME280;68821;59.134;37.894;2023-05-07T05:22:38;100998.22;;;4.18;56.27
67517;BME280;68821;59.134;37.894;2023-05-07T05:25:04;100982.19;;;4.19;56.08
67517;BME280;68821;59.134;37.894;2023-05-07T05:27:31;100997.78;;;4.25;55.80
67517;BME280;68821;59.134;37.894;2023-05-07T05:29:57;100993.63;;;4.27;55.63
67517;BME280;68821;59.134;37.894;2023-05-07T05:32:23;101002.38;;;4.32;55.71
67517;BME280;68821;59.134;37.894;2023-05-07T05:34:49;101006.91;;;4.38;55.45
67517;BME280;68821;59.134;37.894;2023-05-07T05:37:15;100994.41;;;4.42;55.45
67517;BME280;68821;59.134;37.894;2023-05-07T05:39:41;100992.19;;;4.49;54.90
67517;BME280;68821;59.134;37.894;2023-05-07T05:42:08;101007.13;;;4.59;55.21
67517;BME280;68821;59.134;37.894;2023-05-07T05:44:34;100996.31;;;4.63;54.74
67517;BME280;68821;59.134;37.894;2023-05-07T05:47:00;101000.44;;;4.77;54.68
67517;BME280;68821;59.134;37.894;2023-05-07T05:49:26;101008.63;;;4.88;54.36
67517;BME280;68821;59.134;37.894;2023-05-07T05:51:52;100984.16;;;4.92;54.24
67517;BME280;68821;59.134;37.894;2023-05-07T05:54:18;100990.25;;;5.12;53.86
67517;BME280;68821;59.134;37.894;2023-05-07T05:56:45;101004.44;;;5.24;53.78
67517;BME280;68821;59.134;37.894;2023-05-07T05:59:11;100997.38;;;5.37;53.61
67517;BME280;68821;59.134;37.894;2023-05-07T06:01:37;100974.69;;;5.41;53.84
67517;BME280;68821;59.134;37.894;2023-05-07T06:04:04;101009.69;;;5.81;52.66
67517;BME280;68821;59.134;37.894;2023-05-07T06:06:30;101011.13;;;5.94;52.36
67517;BME280;68821;59.134;37.894;2023-05-07T06:08:57;101009.84;;;6.22;51.73
67517;BME280;68821;59.134;37.894;2023-05-07T06:11:23;101012.41;;;6.41;52.14
67517;BME280;68821;59.134;37.894;2023-05-07T06:13:49;101011.06;;;6.50;51.33
67517;BME280;68821;59.134;37.894;2023-05-07T06:16:15;101017.19;;;6.53;51.27
67517;BME280;68821;59.134;37.894;2023-05-07T06:18:41;101020.69;;;6.55;50.19
67517;BME280;68821;59.134;37.894;2023-05-07T06:21:08;101018.19;;;6.57;50.24
67517;BME280;68821;59.134;37.894;2023-05-07T06:23:34;101010.34;;;6.52;50.83
67517;BME280;68821;59.134;37.894;2023-05-07T06:26:00;101013.84;;;6.54;50.32
67517;BME280;68821;59.134;37.894;2023-05-07T06:28:26;101008.09;;;6.60;49.85
67517;BME280;68821;59.134;37.894;2023-05-07T06:30:53;101003.31;;;6.68;50.24
67517;BME280;68821;59.134;37.894;2023-05-07T06:33:19;101006.28;;;6.77;50.03
67517;BME280;68821;59.134;37.894;2023-05-07T06:35:45;101015.16;;;6.85;49.60
67517;BME280;68821;59.134;37.894;2023-05-07T06:38:11;101018.94;;;6.95;50.45
67517;BME280;68821;59.134;37.894;2023-05-07T06:40:38;101025.38;;;7.06;49.79
67517;BME280;68821;59.134;37.894;2023-05-07T06:43:04;101024.19;;;6.98;49.46
67517;BME280;68821;59.134;37.894;2023-05-07T06:45:30;101018.38;;;6.81;48.85
67517;BME280;68821;59.134;37.894;2023-05-07T06:47:56;101019.94;;;6.58;49.18
67517;BME280;68821;59.134;37.894;2023-05-07T06:50:22;101020.47;;;6.51;49.40
67517;BME280;68821;59.134;37.894;2023-05-07T06:52:48;101017.06;;;6.50;49.57
67517;BME280;68821;59.134;37.894;2023-05-07T06:55:14;101012.53;;;6.64;49.40
67517;BME280;68821;59.134;37.894;2023-05-07T06:57:41;101026.75;;;6.78;48.08
67517;BME280;68821;59.134;37.894;2023-05-07T07:00:07;101003.50;;;6.92;48.38
67517;BME280;68821;59.134;37.894;2023-05-07T07:02:36;101008.75;;;7.16;47.82
67517;BME280;68821;59.134;37.894;2023-05-07T07:05:02;101018.81;;;7.34;48.05
67517;BME280;68821;59.134;37.894;2023-05-07T07:07:28;101018.81;;;7.34;48.13
67517;BME280;68821;59.134;37.894;2023-05-07T07:09:54;101033.06;;;7.27;47.65
67517;BME280;68821;59.134;37.894;2023-05-07T07:12:21;101030.69;;;7.11;47.49
67517;BME280;68821;59.134;37.894;2023-05-07T07:14:48;101018.31;;;7.00;48.03
67517;BME280;68821;59.134;37.894;2023-05-07T07:17:14;101036.13;;;6.97;47.91
67517;BME280;68821;59.134;37.894;2023-05-07T07:19:40;101031.94;;;6.99;46.74
67517;BME280;68821;59.134;37.894;2023-05-07T07:22:06;101036.78;;;6.93;48.00
67517;BME280;68821;59.134;37.894;2023-05-07T07:24:32;101040.97;;;6.91;47.00
67517;BME280;68821;59.134;37.894;2023-05-07T07:27:04;101052.13;;;6.93;47.61
67517;BME280;68821;59.134;37.894;2023-05-07T07:29:30;101029.38;;;6.99;47.16
67517;BME280;68821;59.134;37.894;2023-05-07T07:31:56;101020.78;;;7.18;47.21
67517;BME280;68821;59.134;37.894;2023-05-07T07:34:22;101030.31;;;7.43;47.12
67517;BME280;68821;59.134;37.894;2023-05-07T07:36:49;101028.78;;;7.70;46.14
67517;BME280;68821;59.134;37.894;2023-05-07T07:39:15;101026.94;;;7.88;46.11
67517;BME280;68821;59.134;37.894;2023-05-07T07:41:41;101022.91;;;7.95;45.72
67517;BME280;68821;59.134;37.894;2023-05-07T07:44:07;101019.88;;;8.05;45.60
67517;BME280;68821;59.134;37.894;2023-05-07T07:46:34;101027.69;;;8.31;45.43
67517;BME280;68821;59.134;37.894;2023-05-07T07:49:00;101015.50;;;8.48;45.41
67517;BME280;68821;59.134;37.894;2023-05-07T07:51:26;101023.19;;;8.72;45.06
67517;BME280;68821;59.134;37.894;2023-05-07T07:53:52;101026.81;;;8.78;44.63
67517;BME280;68821;59.134;37.894;2023-05-07T07:56:18;101018.00;;;8.70;44.92
67517;BME280;68821;59.134;37.894;2023-05-07T07:58:44;100998.84;;;8.60;45.08
67517;BME280;68821;59.134;37.894;2023-05-07T08:01:11;101020.41;;;8.65;44.61
67517;BME280;68821;59.134;37.894;2023-05-07T08:03:38;101001.91;;;8.50;44.90
67517;BME280;68821;59.134;37.894;2023-05-07T08:06:04;101009.09;;;8.60;44.55
67517;BME280;68821;59.134;37.894;2023-05-07T08:08:30;101027.31;;;8.92;44.66
67517;BME280;68821;59.134;37.894;2023-05-07T08:10:57;101022.78;;;9.11;43.83
67517;BME280;68821;59.134;37.894;2023-05-07T08:13:23;101024.00;;;9.22;43.51
67517;BME280;68821;59.134;37.894;2023-05-07T08:15:49;101023.19;;;9.23;43.38
67517;BME280;68821;59.134;37.894;2023-05-07T08:18:15;101026.47;;;9.19;43.81
67517;BME280;68821;59.134;37.894;2023-05-07T08:20:41;101034.59;;;9.33;42.93
67517;BME280;68821;59.134;37.894;2023-05-07T08:23:08;101030.41;;;9.35;42.91
67517;BME280;68821;59.134;37.894;2023-05-07T08:25:34;101038.84;;;9.58;42.92
67517;BME280;68821;59.134;37.894;2023-05-07T08:28:01;101047.03;;;9.73;42.35
67517;BME280;68821;59.134;37.894;2023-05-07T08:30:27;101050.97;;;9.62;41.93
67517;BME280;68821;59.134;37.894;2023-05-07T08:32:53;101015.66;;;9.27;43.20
67517;BME280;68821;59.134;37.894;2023-05-07T08:35:19;101043.00;;;9.27;43.23
67517;BME280;68821;59.134;37.894;2023-05-07T08:37:45;101037.28;;;9.36;43.27
67517;BME280;68821;59.134;37.894;2023-05-07T08:40:11;101037.88;;;9.54;42.91
67517;BME280;68821;59.134;37.894;2023-05-07T08:42:38;101033.59;;;9.55;42.94
67517;BME280;68821;59.134;37.894;2023-05-07T08:45:09;101044.72;;;9.54;42.38
67517;BME280;68821;59.134;37.894;2023-05-07T08:47:46;101038.06;;;9.33;41.89
67517;BME280;68821;59.134;37.894;2023-05-07T08:50:13;101032.56;;;9.22;42.29
67517;BME280;68821;59.134;37.894;2023-05-07T08:52:40;101037.47;;;9.15;42.44
67517;BME280;68821;59.134;37.894;2023-05-07T08:55:07;101046.81;;;9.13;42.20
67517;BME280;68821;59.134;37.894;2023-05-07T08:57:34;101056.66;;;9.00;42.34
67517;BME280;68821;59.134;37.894;2023-05-07T09:00:00;101048.13;;;8.77;42.29
67517;BME280;68821;59.134;37.894;2023-05-07T09:02:26;101045.34;;;8.70;42.97
67517;BME280;68821;59.134;37.894;2023-05-07T09:04:52;101041.56;;;8.60;42.46
67517;BME280;68821;59.134;37.894;2023-05-07T09:07:19;101039.88;;;8.60;42.61
67517;BME280;68821;59.134;37.894;2023-05-07T09:09:46;101012.94;;;8.72;42.10
67517;BME280;68821;59.134;37.894;2023-05-07T09:12:12;101030.72;;;9.18;43.00
67517;BME280;68821;59.134;37.894;2023-05-07T09:14:38;101047.63;;;9.64;41.51
67517;BME280;68821;59.134;37.894;2023-05-07T09:17:05;101041.63;;;9.93;41.44
67517;BME280;68821;59.134;37.894;2023-05-07T09:19:31;101034.28;;;10.05;40.36
67517;BME280;68821;59.134;37.894;2023-05-07T09:21:58;101050.56;;;10.05;39.87
67517;BME280;68821;59.134;37.894;2023-05-07T09:24:25;101049.34;;;10.23;40.13
67517;BME280;68821;59.134;37.894;2023-05-07T09:26:51;101048.09;;;10.37;39.65
67517;BME280;68821;59.134;37.894;2023-05-07T09:29:18;101040.19;;;10.30;40.19
67517;BME280;68821;59.134;37.894;2023-05-07T09:31:44;101048.66;;;10.28;39.46
67517;BME280;68821;59.134;37.894;2023-05-07T09:34:10;101044.03;;;10.17;39.37
67517;BME280;68821;59.134;37.894;2023-05-07T09:36:36;101051.53;;;10.09;39.24
67517;BME280;68821;59.134;37.894;2023-05-07T09:39:03;101048.31;;;9.87;39.82
67517;BME280;68821;59.134;37.894;2023-05-07T09:41:33;101036.06;;;9.79;39.86
67517;BME280;68821;59.134;37.894;2023-05-07T09:44:09;101039.63;;;9.84;40.36
67517;BME280;68821;59.134;37.894;2023-05-07T09:46:36;101046.84;;;9.96;39.94
67517;BME280;68821;59.134;37.894;2023-05-07T09:49:10;101032.03;;;10.16;40.33
67517;BME280;68821;59.134;37.894;2023-05-07T09:51:43;101045.13;;;10.54;40.11
67517;BME280;68821;59.134;37.894;2023-05-07T09:54:11;101054.00;;;10.65;39.66
67517;BME280;68821;59.134;37.894;2023-05-07T09:56:39;101041.81;;;10.58;39.09
67517;BME280;68821;59.134;37.894;2023-05-07T09:59:08;101044.75;;;10.72;39.81
67517;BME280;68821;59.134;37.894;2023-05-07T10:01:36;101045.56;;;11.02;38.92
67517;BME280;68821;59.134;37.894;2023-05-07T10:04:03;101043.00;;;11.37;38.49
67517;BME280;68821;59.134;37.894;2023-05-07T10:06:38;101041.25;;;11.73;37.92
67517;BME280;68821;59.134;37.894;2023-05-07T10:09:05;101040.03;;;11.93;37.90
67517;BME280;68821;59.134;37.894;2023-05-07T10:11:35;101056.91;;;12.18;37.58
67517;BME280;68821;59.134;37.894;2023-05-07T10:14:02;101047.22;;;12.49;37.16
67517;BME280;68821;59.134;37.894;2023-05-07T10:16:31;101038.25;;;12.74;36.61
67517;BME280;68821;59.134;37.894;2023-05-07T10:18:58;101026.38;;;12.84;36.34
67517;BME280;68821;59.134;37.894;2023-05-07T10:21:26;101046.22;;;12.86;35.79
67517;BME280;68821;59.134;37.894;2023-05-07T10:24:29;101058.25;;;12.42;35.37
67517;BME280;68821;59.134;37.894;2023-05-07T10:26:59;101069.50;;;11.68;35.42
67517;BME280;68821;59.134;37.894;2023-05-07T10:32:19;101074.13;;;10.48;36.92
67517;BME280;68821;59.134;37.894;2023-05-07T10:34:53;101062.56;;;10.06;37.32
67517;BME280;68821;59.134;37.894;2023-05-07T10:37:21;101059.44;;;9.88;37.22
67517;BME280;68821;59.134;37.894;2023-05-07T10:39:48;101059.69;;;9.96;38.00
67517;BME280;68821;59.134;37.894;2023-05-07T10:42:15;101056.94;;;10.18;37.71
67517;BME280;68821;59.134;37.894;2023-05-07T10:44:41;101057.63;;;10.40;37.09
67517;BME280;68821;59.134;37.894;2023-05-07T10:47:15;101058.13;;;10.90;37.10
67517;BME280;68821;59.134;37.894;2023-05-07T10:52:22;101041.41;;;14.19;34.45
67517;BME280;68821;59.134;37.894;2023-05-07T10:57:40;101049.72;;;14.64;31.86
67517;BME280;68821;59.134;37.894;2023-05-07T11:05:31;101083.66;;;11.85;33.31
67517;BME280;68821;59.134;37.894;2023-05-07T11:08:02;101086.81;;;11.74;33.66
67517;BME280;68821;59.134;37.894;2023-05-07T11:13:18;101079.66;;;11.98;33.38
67517;BME280;68821;59.134;37.894;2023-05-07T11:15:46;101087.56;;;11.70;33.24
67517;BME280;68821;59.134;37.894;2023-05-07T11:18:17;101080.00;;;11.41;33.50
67517;BME280;68821;59.134;37.894;2023-05-07T11:20:52;101090.63;;;11.20;33.84
67517;BME280;68821;59.134;37.894;2023-05-07T11:26:04;101083.03;;;11.24;33.62
67517;BME280;68821;59.134;37.894;2023-05-07T11:28:31;101069.19;;;11.56;33.43
67517;BME280;68821;59.134;37.894;2023-05-07T11:31:02;101079.56;;;12.77;33.93
67517;BME280;68821;59.134;37.894;2023-05-07T11:33:30;101065.34;;;15.69;32.22
67517;BME280;68821;59.134;37.894;2023-05-07T11:35:57;101050.19;;;18.33;30.58
67517;BME280;68821;59.134;37.894;2023-05-07T11:38:24;101052.75;;;21.08;28.99
67517;BME280;68821;59.134;37.894;2023-05-07T11:40:58;101060.28;;;23.41;27.13
67517;BME280;68821;59.134;37.894;2023-05-07T11:43:30;101061.38;;;24.89;25.55
67517;BME280;68821;59.134;37.894;2023-05-07T11:46:11;101055.84;;;23.79;24.52
67517;BME280;68821;59.134;37.894;2023-05-07T11:48:38;101095.00;;;21.89;24.57
67517;BME280;68821;59.134;37.894;2023-05-07T11:51:05;101081.28;;;19.88;25.37
67517;BME280;68821;59.134;37.894;2023-05-07T11:53:36;101095.38;;;18.08;26.25
67517;BME280;68821;59.134;37.894;2023-05-07T11:58:33;101055.09;;;15.83;27.39
67517;BME280;68821;59.134;37.894;2023-05-07T12:01:00;101100.31;;;16.32;27.99
67517;BME280;68821;59.134;37.894;2023-05-07T12:03:26;101095.41;;;17.98;27.45
67517;BME280;68821;59.134;37.894;2023-05-07T12:05:52;101084.78;;;19.87;26.18
67517;BME280;68821;59.134;37.894;2023-05-07T12:08:20;101080.97;;;21.93;24.94
67517;BME280;68821;59.134;37.894;2023-05-07T12:10:50;101083.44;;;21.54;23.91
67517;BME280;68821;59.134;37.894;2023-05-07T12:13:21;101089.81;;;20.04;24.16
67517;BME280;68821;59.134;37.894;2023-05-07T12:15:52;101092.63;;;18.52;24.88
67517;BME280;68821;59.134;37.894;2023-05-07T12:18:18;101092.84;;;17.48;25.40
67517;BME280;68821;59.134;37.894;2023-05-07T12:20:46;101092.81;;;17.18;25.98
67517;BME280;68821;59.134;37.894;2023-05-07T12:23:12;101088.34;;;16.67;26.12
67517;BME280;68821;59.134;37.894;2023-05-07T12:25:39;101098.38;;;15.92;26.79
67517;BME280;68821;59.134;37.894;2023-05-07T12:28:07;101103.00;;;15.27;26.73
67517;BME280;68821;59.134;37.894;2023-05-07T12:30:38;101099.16;;;14.87;27.20
67517;BME280;68821;59.134;37.894;2023-05-07T12:33:04;101106.59;;;15.43;27.39
67517;BME280;68821;59.134;37.894;2023-05-07T12:35:32;101085.88;;;17.37;26.82
67517;BME280;68821;59.134;37.894;2023-05-07T12:38:01;101091.16;;;19.51;25.35
67517;BME280;68821;59.134;37.894;2023-05-07T12:40:38;101080.47;;;19.80;24.39
67517;BME280;68821;59.134;37.894;2023-05-07T12:43:04;101091.56;;;18.96;24.18
67517;BME280;68821;59.134;37.894;2023-05-07T12:45:31;101094.53;;;17.82;24.71
67517;BME280;68821;59.134;37.894;2023-05-07T12:48:01;101088.38;;;16.77;25.35
67517;BME280;68821;59.134;37.894;2023-05-07T12:50:32;101092.34;;;16.01;26.08
67517;BME280;68821;59.134;37.894;2023-05-07T12:53:03;101092.84;;;15.49;26.25
67517;BME280;68821;59.134;37.894;2023-05-07T12:55:32;101101.75;;;14.90;26.36
67517;BME280;68821;59.134;37.894;2023-05-07T12:58:01;101104.72;;;14.49;26.88
67517;BME280;68821;59.134;37.894;2023-05-07T13:00:36;101104.16;;;14.07;27.33
67517;BME280;68821;59.134;37.894;2023-05-07T13:03:03;101095.38;;;13.95;27.57
67517;BME280;68821;59.134;37.894;2023-05-07T13:05:29;101101.72;;;15.76;27.55
67517;BME280;68821;59.134;37.894;2023-05-07T13:07:56;101087.53;;;18.25;25.42
67517;BME280;68821;59.134;37.894;2023-05-07T13:10:25;101074.56;;;18.12;24.58
67517;BME280;68821;59.134;37.894;2023-05-07T13:12:51;101094.56;;;17.62;25.24